createdAt,value
2022-08-26T00:01:52.533Z,61.43
2022-08-26T00:04:21.138Z,61.45
2022-08-26T00:06:48.247Z,61.60
2022-08-26T00:09:16.261Z,61.99
2022-08-26T00:11:43.680Z,61.90
2022-08-26T00:14:10.507Z,62.22
2022-08-26T00:16:40.908Z,62.39
2022-08-26T00:19:14.559Z,61.72
2022-08-26T00:21:41.650Z,61.98
2022-08-26T00:24:09.009Z,62.11
2022-08-26T00:26:36.264Z,63.16
2022-08-26T00:29:03.794Z,63.11
2022-08-26T00:31:32.130Z,63.31
2022-08-26T00:34:00.443Z,63.66
2022-08-26T00:36:29.766Z,63.40
2022-08-26T00:38:56.928Z,63.90
2022-08-26T00:41:24.169Z,63.76
2022-08-26T00:43:51.483Z,65.47
2022-08-26T00:46:21.719Z,64.99
2022-08-26T00:48:52.224Z,63.96
2022-08-26T00:51:24.572Z,63.82
2022-08-26T00:54:04.104Z,63.51
2022-08-26T00:56:37.989Z,63.96
2022-08-26T00:59:08.093Z,63.90
2022-08-26T01:01:36.254Z,63.64
2022-08-26T01:04:03.631Z,63.70
2022-08-26T01:06:32.006Z,63.77
2022-08-26T01:08:59.082Z,63.76
2022-08-26T01:11:26.335Z,64.36
2022-08-26T01:13:56.347Z,65.03
2022-08-26T01:16:25.540Z,64.14
2022-08-26T01:18:54.681Z,63.99
2022-08-26T01:21:28.568Z,64.04
2022-08-26T01:23:59.453Z,64.50
2022-08-26T01:26:30.967Z,64.60
2022-08-26T01:29:03.054Z,65.02
2022-08-26T01:31:34.986Z,66.46
2022-08-26T01:34:06.754Z,66.91
2022-08-26T01:36:36.961Z,65.97
2022-08-26T01:39:07.280Z,65.68
2022-08-26T01:41:36.495Z,66.70
2022-08-26T01:44:06.635Z,66.90
2022-08-26T01:46:37.209Z,67.24
2022-08-26T01:49:08.384Z,66.74
2022-08-26T01:51:37.278Z,66.39
2022-08-26T01:54:07.559Z,65.31
2022-08-26T01:56:39.611Z,66.74
2022-08-26T01:59:11.326Z,66.22
2022-08-26T02:01:39.725Z,65.90
2022-08-26T02:04:14.238Z,64.90
2022-08-26T02:06:42.003Z,64.57
2022-08-26T02:09:11.508Z,64.99
2022-08-26T02:11:38.590Z,64.77
2022-08-26T02:14:11.523Z,65.28
2022-08-26T02:16:42.219Z,65.63
2022-08-26T02:19:17.151Z,66.39
2022-08-26T02:21:46.115Z,66.19
2022-08-26T02:24:22.958Z,65.86
2022-08-26T02:26:52.047Z,66.05
2022-08-26T02:29:23.874Z,66.03
2022-08-26T02:31:50.930Z,65.98
2022-08-26T02:34:21.815Z,65.58
2022-08-26T02:36:49.434Z,65.39
2022-08-26T02:39:19.738Z,65.60
2022-08-26T02:41:49.340Z,66.22
2022-08-26T02:44:16.405Z,65.75
2022-08-26T02:46:46.916Z,65.56
2022-08-26T02:49:14.442Z,65.83
2022-08-26T02:51:41.251Z,66.23
2022-08-26T02:54:10.025Z,66.63
2022-08-26T02:56:38.341Z,66.35
2022-08-26T02:59:05.271Z,65.71
2022-08-26T03:01:35.498Z,64.88
2022-08-26T03:04:05.552Z,64.76
2022-08-26T03:06:32.627Z,64.57
2022-08-26T03:08:59.691Z,64.33
2022-08-26T03:11:30.881Z,64.76
2022-08-26T03:14:01.730Z,64.08
2022-08-26T03:16:32.662Z,64.30
2022-08-26T03:19:00.434Z,64.36
2022-08-26T03:21:27.310Z,64.35
2022-08-26T03:23:54.222Z,64.79
2022-08-26T03:26:25.948Z,64.84
2022-08-26T03:29:11.127Z,64.78
2022-08-26T03:31:39.429Z,65.09
2022-08-26T03:34:06.873Z,65.54
2022-08-26T03:36:33.858Z,65.16
2022-08-26T03:39:02.052Z,65.12
2022-08-26T03:41:29.754Z,64.58
2022-08-26T03:44:01.032Z,66.00
2022-08-26T03:46:28.848Z,65.60
2022-08-26T03:48:57.862Z,66.14
2022-08-26T03:51:26.173Z,66.48
2022-08-26T03:53:53.235Z,66.84
2022-08-26T03:56:20.165Z,65.85
2022-08-26T03:58:47.043Z,66.41
2022-08-26T04:01:16.233Z,66.20
2022-08-26T04:04:00.196Z,66.50
2022-08-26T04:06:31.148Z,67.21
2022-08-26T04:09:01.022Z,67.92
2022-08-26T04:11:32.113Z,68.18
2022-08-26T04:14:06.061Z,68.01
2022-08-26T04:16:32.980Z,68.20
2022-08-26T04:18:59.891Z,68.12
2022-08-26T04:21:29.380Z,67.92
2022-08-26T04:23:56.750Z,68.51
2022-08-26T04:26:25.813Z,69.26
2022-08-26T04:28:54.913Z,70.32
2022-08-26T04:31:22.100Z,70.03
2022-08-26T04:33:50.086Z,69.60
2022-08-26T04:36:17.706Z,70.47
2022-08-26T04:38:50.637Z,69.24
2022-08-26T04:41:19.706Z,68.79
2022-08-26T04:43:48.867Z,68.97
2022-08-26T04:46:18.550Z,68.89
2022-08-26T04:48:46.014Z,69.39
2022-08-26T04:51:12.975Z,69.29
2022-08-26T04:53:39.958Z,69.81
2022-08-26T04:56:08.903Z,69.30
2022-08-26T04:58:38.939Z,68.88
2022-08-26T05:01:06.268Z,69.08
2022-08-26T05:03:33.111Z,69.04
2022-08-26T05:06:04.063Z,68.64
2022-08-26T05:08:31.661Z,68.39
2022-08-26T05:10:58.990Z,68.12
2022-08-26T05:13:28.576Z,67.33
2022-08-26T05:15:59.122Z,67.27
2022-08-26T05:18:30.033Z,66.81
2022-08-26T05:20:57.516Z,66.57
2022-08-26T05:23:24.546Z,66.66
2022-08-26T05:25:58.966Z,67.34
2022-08-26T05:28:29.124Z,66.31
2022-08-26T05:30:56.640Z,65.72
2022-08-26T05:33:23.601Z,64.92
2022-08-26T05:35:50.654Z,66.01
2022-08-26T05:38:21.749Z,65.82
2022-08-26T05:40:52.866Z,66.11
2022-08-26T05:43:20.120Z,66.13
2022-08-26T05:45:50.400Z,65.74
2022-08-26T05:48:22.751Z,65.41
2022-08-26T05:50:53.107Z,65.19
2022-08-26T05:53:22.605Z,64.53
2022-08-26T05:55:53.996Z,64.11
2022-08-26T05:58:22.475Z,64.12
2022-08-26T06:00:59.402Z,63.48
2022-08-26T06:03:26.898Z,63.02
2022-08-26T06:05:54.055Z,62.67
2022-08-26T06:08:21.822Z,62.53
2022-08-26T06:10:51.400Z,61.84
2022-08-26T06:13:20.169Z,61.77
2022-08-26T06:15:50.450Z,61.18
2022-08-26T06:18:22.035Z,60.99
2022-08-26T06:20:57.247Z,61.15
2022-08-26T06:23:45.456Z,61.66
2022-08-26T06:26:12.783Z,61.64
2022-08-26T06:28:39.595Z,61.14
2022-08-26T06:31:07.698Z,61.29
2022-08-26T06:33:36.435Z,62.39
2022-08-26T06:36:03.990Z,62.51
2022-08-26T06:38:30.892Z,62.78
2022-08-26T06:40:59.670Z,62.75
2022-08-26T06:43:28.324Z,62.48
2022-08-26T06:46:01.692Z,62.85
2022-08-26T06:48:31.940Z,63.29
2022-08-26T06:51:09.406Z,62.93
2022-08-26T06:53:36.891Z,62.95
2022-08-26T06:56:06.215Z,62.70
2022-08-26T06:58:33.963Z,61.65
2022-08-26T07:01:09.071Z,61.08
2022-08-26T07:03:39.513Z,59.83
2022-08-26T07:06:08.614Z,60.14
2022-08-26T07:08:35.663Z,58.54
2022-08-26T07:11:04.940Z,58.22
2022-08-26T07:13:31.844Z,58.36
2022-08-26T07:16:03.175Z,57.62
2022-08-26T07:18:31.339Z,56.22
2022-08-26T07:20:58.264Z,56.31
2022-08-26T07:23:27.605Z,54.81
2022-08-26T07:25:54.691Z,53.92
2022-08-26T07:28:22.967Z,55.46
2022-08-26T07:30:50.359Z,55.54
2022-08-26T07:33:18.001Z,56.55
2022-08-26T07:35:45.472Z,55.24
2022-08-26T07:38:13.414Z,55.15
2022-08-26T07:40:41.804Z,55.29
2022-08-26T07:43:09.873Z,56.97
2022-08-26T07:45:37.072Z,56.73
2022-08-26T07:48:05.237Z,56.76
2022-08-26T07:50:49.483Z,57.32
2022-08-26T07:53:18.240Z,56.73
2022-08-26T07:55:47.750Z,56.62
2022-08-26T07:58:15.188Z,55.92
2022-08-26T08:00:43.076Z,56.02
2022-08-26T08:03:10.966Z,55.90
2022-08-26T08:05:38.697Z,54.50
2022-08-26T08:08:27.135Z,54.90
2022-08-26T08:10:56.611Z,55.08
2022-08-26T08:13:23.728Z,55.52
2022-08-26T08:15:51.167Z,55.72
2022-08-26T08:18:20.606Z,54.89
2022-08-26T08:20:59.002Z,56.28
2022-08-26T08:23:32.997Z,54.78
2022-08-26T08:26:06.476Z,54.61
2022-08-26T08:28:35.488Z,54.53
2022-08-26T08:31:02.926Z,54.20
2022-08-26T08:33:30.623Z,54.15
2022-08-26T08:35:57.552Z,53.01
2022-08-26T08:38:25.164Z,53.02
2022-08-26T08:40:53.241Z,52.12
2022-08-26T08:43:31.061Z,52.53
2022-08-26T08:46:09.850Z,51.87
2022-08-26T08:48:43.446Z,52.66
2022-08-26T08:51:20.748Z,53.33
2022-08-26T08:53:54.786Z,53.63
2022-08-26T08:56:27.144Z,52.66
2022-08-26T08:59:06.867Z,53.02
2022-08-26T09:01:59.980Z,51.53
2022-08-26T09:04:46.896Z,52.28
2022-08-26T09:07:18.547Z,52.98
2022-08-26T09:09:49.565Z,52.75
2022-08-26T09:12:21.013Z,52.33
2022-08-26T09:15:02.991Z,54.02
2022-08-26T09:17:43.873Z,52.87
2022-08-26T09:20:14.229Z,53.50
2022-08-26T09:22:41.377Z,53.39
2022-08-26T09:25:13.631Z,53.25
2022-08-26T09:27:43.688Z,52.80
2022-08-26T09:30:14.849Z,53.58
2022-08-26T09:32:42.756Z,54.20
2022-08-26T09:35:26.581Z,53.84
2022-08-26T09:37:53.875Z,54.60
2022-08-26T09:40:29.541Z,53.87
2022-08-26T09:43:12.106Z,53.84
2022-08-26T09:45:50.094Z,54.02
2022-08-26T09:48:27.266Z,53.18
2022-08-26T09:50:56.279Z,53.04
2022-08-26T09:53:30.312Z,52.41
2022-08-26T09:56:16.636Z,52.05
2022-08-26T09:58:46.043Z,51.78
2022-08-26T10:01:30.079Z,53.35
2022-08-26T10:04:06.623Z,53.08
2022-08-26T10:06:39.242Z,52.43
2022-08-26T10:09:11.349Z,53.09
2022-08-26T10:11:45.191Z,52.29
2022-08-26T10:14:19.139Z,51.96
2022-08-26T10:16:52.721Z,52.36
2022-08-26T10:19:25.324Z,52.17
2022-08-26T10:22:12.463Z,52.25
2022-08-26T10:24:43.037Z,52.70
2022-08-26T10:27:23.191Z,51.80
2022-08-26T10:29:55.730Z,51.55
2022-08-26T10:32:27.907Z,50.89
2022-08-26T10:34:54.849Z,51.23
2022-08-26T10:37:26.974Z,51.17
2022-08-26T10:40:01.487Z,51.36
2022-08-26T10:42:35.388Z,51.87
2022-08-26T10:45:11.649Z,50.83
2022-08-26T10:47:45.744Z,50.71
2022-08-26T10:50:12.920Z,49.92
2022-08-26T10:52:54.099Z,50.76
2022-08-26T10:55:29.453Z,50.09
2022-08-26T10:58:26.725Z,50.99
2022-08-26T11:01:22.688Z,49.95
2022-08-26T11:03:59.484Z,48.97
2022-08-26T11:06:28.997Z,49.82
2022-08-26T11:08:57.165Z,48.59
2022-08-26T11:11:49.276Z,49.23
2022-08-26T11:14:58.749Z,49.68
2022-08-26T11:17:57.781Z,49.57
2022-08-26T11:20:36.276Z,48.79
2022-08-26T11:23:37.498Z,49.12
2022-08-26T11:26:37.779Z,50.42
2022-08-26T11:29:04.515Z,50.10
2022-08-26T11:31:55.604Z,49.27
2022-08-26T11:34:57.036Z,49.62
2022-08-26T11:37:32.459Z,50.02
2022-08-26T11:40:03.612Z,49.89
2022-08-26T11:42:41.042Z,48.65
2022-08-26T11:45:19.946Z,49.18
2022-08-26T11:47:47.474Z,49.15
2022-08-26T11:50:20.358Z,47.82
2022-08-26T11:53:01.580Z,47.76
2022-08-26T11:55:33.167Z,48.36
2022-08-26T11:58:01.901Z,47.39
2022-08-26T12:00:38.853Z,48.19
2022-08-26T12:03:18.037Z,48.36
2022-08-26T12:05:47.559Z,48.45
2022-08-26T12:08:18.726Z,47.61
2022-08-26T12:10:45.675Z,47.75
2022-08-26T12:13:22.004Z,49.20
2022-08-26T12:15:52.660Z,47.73
2022-08-26T12:18:29.396Z,47.66
2022-08-26T12:21:00.456Z,47.16
2022-08-26T12:23:39.893Z,46.59
2022-08-26T12:26:11.220Z,45.51
2022-08-26T12:28:43.635Z,46.42
2022-08-26T12:31:10.526Z,46.88
2022-08-26T12:33:38.180Z,47.26
2022-08-26T12:36:06.778Z,46.12
2022-08-26T12:38:37.148Z,46.63
2022-08-26T12:41:04.159Z,47.05
2022-08-26T12:43:40.766Z,46.22
2022-08-26T12:46:09.918Z,46.62
2022-08-26T12:48:40.578Z,46.10
2022-08-26T12:51:15.798Z,46.31
2022-08-26T12:53:44.426Z,46.30
2022-08-26T12:56:31.895Z,46.25
2022-08-26T12:59:06.165Z,44.82
2022-08-26T13:01:39.134Z,44.70
2022-08-26T13:04:06.977Z,44.83
2022-08-26T13:06:35.010Z,45.29
2022-08-26T13:09:24.926Z,44.17
2022-08-26T13:11:59.340Z,43.55
2022-08-26T13:14:29.161Z,44.00
2022-08-26T13:16:56.047Z,44.57
2022-08-26T13:19:25.501Z,44.08
2022-08-26T13:21:54.558Z,43.75
2022-08-26T13:24:28.643Z,45.98
2022-08-26T13:26:56.163Z,45.87
2022-08-26T13:29:23.082Z,46.32
2022-08-26T13:31:50.930Z,47.16
2022-08-26T13:34:20.124Z,46.35
2022-08-26T13:36:47.968Z,46.95
2022-08-26T13:39:15.040Z,48.02
2022-08-26T13:41:43.410Z,48.65
2022-08-26T13:44:10.619Z,48.09
2022-08-26T13:46:37.723Z,48.08
2022-08-26T13:49:04.986Z,47.77
2022-08-26T13:51:32.724Z,47.04
2022-08-26T13:54:00.067Z,48.16
2022-08-26T13:56:29.724Z,46.95
2022-08-26T13:58:59.510Z,47.59
2022-08-26T14:01:27.618Z,47.67
2022-08-26T14:03:54.594Z,47.13
2022-08-26T14:06:22.213Z,46.79
2022-08-26T14:08:49.496Z,46.70
2022-08-26T14:11:17.477Z,46.79
2022-08-26T14:13:44.403Z,46.84
2022-08-26T14:16:22.085Z,47.50
2022-08-26T14:18:50.907Z,46.34
2022-08-26T14:21:18.636Z,47.09
2022-08-26T14:23:45.577Z,46.19
2022-08-26T14:26:28.242Z,45.37
2022-08-26T14:28:57.123Z,45.50
2022-08-26T14:31:27.166Z,45.94
2022-08-26T14:33:56.740Z,45.52
2022-08-26T14:36:31.363Z,46.21
2022-08-26T14:39:01.988Z,45.92
2022-08-26T14:41:31.322Z,45.52
2022-08-26T14:44:01.811Z,45.05
2022-08-26T14:46:33.458Z,45.43
2022-08-26T14:49:05.239Z,44.67
2022-08-26T14:51:34.929Z,45.23
2022-08-26T14:54:14.577Z,45.30
2022-08-26T14:56:47.437Z,45.31
2022-08-26T14:59:15.794Z,46.61
2022-08-26T15:01:44.795Z,46.07
2022-08-26T15:04:11.849Z,46.30
2022-08-26T15:06:39.093Z,46.53
2022-08-26T15:09:06.844Z,46.65
2022-08-26T15:11:33.702Z,46.57
2022-08-26T15:14:00.636Z,47.71
2022-08-26T15:16:29.191Z,47.44
2022-08-26T15:18:57.943Z,47.10
2022-08-26T15:21:26.356Z,46.99
2022-08-26T15:23:54.118Z,46.70
2022-08-26T15:26:21.832Z,47.67
2022-08-26T15:28:49.077Z,48.49
2022-08-26T15:31:16.417Z,49.22
2022-08-26T15:33:43.729Z,50.06
2022-08-26T15:36:12.134Z,49.90
2022-08-26T15:38:42.509Z,50.73
2022-08-26T15:41:10.342Z,51.45
2022-08-26T15:43:38.057Z,51.28
2022-08-26T15:46:10.868Z,51.58
2022-08-26T15:48:38.479Z,52.20
2022-08-26T15:51:06.884Z,52.31
2022-08-26T15:53:35.552Z,52.45
2022-08-26T15:56:02.826Z,51.79
2022-08-26T15:58:30.450Z,51.66
2022-08-26T16:00:58.112Z,52.20
2022-08-26T16:03:25.047Z,52.36
2022-08-26T16:05:52.382Z,50.69
2022-08-26T16:08:19.627Z,51.74
2022-08-26T16:10:50.635Z,52.38
2022-08-26T16:13:18.529Z,52.04
2022-08-26T16:15:45.649Z,52.38
2022-08-26T16:18:13.906Z,53.21
2022-08-26T16:20:50.200Z,52.93
2022-08-26T16:23:36.101Z,52.82
2022-08-26T16:26:10.588Z,52.81
2022-08-26T16:28:38.442Z,52.13
2022-08-26T16:31:06.429Z,52.61
2022-08-26T16:33:33.493Z,52.68
2022-08-26T16:36:00.350Z,52.74
2022-08-26T16:38:27.230Z,53.10
2022-08-26T16:40:54.132Z,53.21
2022-08-26T16:43:22.390Z,53.48
2022-08-26T16:45:49.261Z,53.97
2022-08-26T16:48:16.563Z,53.14
2022-08-26T16:50:43.431Z,53.06
2022-08-26T16:55:44.634Z,53.43
2022-08-26T16:58:11.866Z,53.38
2022-08-26T17:00:40.395Z,53.47
2022-08-26T17:03:07.363Z,53.54
2022-08-26T17:05:34.745Z,54.22
2022-08-26T17:08:01.969Z,54.32
2022-08-26T17:10:30.328Z,54.28
2022-08-26T17:12:57.841Z,53.76
2022-08-26T17:15:25.906Z,54.21
2022-08-26T17:17:54.384Z,54.10
2022-08-26T17:20:22.667Z,54.21
2022-08-26T17:22:51.812Z,54.20
2022-08-26T17:25:21.872Z,54.40
2022-08-26T17:27:48.833Z,54.66
2022-08-26T17:30:17.204Z,54.72
2022-08-26T17:32:44.735Z,54.54
2022-08-26T17:35:14.355Z,54.32
2022-08-26T17:37:41.549Z,54.14
2022-08-26T17:40:11.788Z,54.54
2022-08-26T17:42:39.771Z,54.38
2022-08-26T17:45:08.134Z,55.14
2022-08-26T17:47:35.100Z,54.75
2022-08-26T17:50:02.836Z,54.49
2022-08-26T17:52:31.253Z,54.69
2022-08-26T17:54:59.027Z,54.69
2022-08-26T17:57:26.623Z,55.02
2022-08-26T17:59:53.699Z,55.28
2022-08-26T18:02:21.648Z,55.13
2022-08-26T18:04:48.984Z,54.95
2022-08-26T18:07:16.303Z,55.37
2022-08-26T18:09:44.919Z,55.17
2022-08-26T18:12:12.601Z,55.19
2022-08-26T18:14:39.456Z,54.96
2022-08-26T18:17:06.320Z,54.92
2022-08-26T18:19:33.262Z,55.25
2022-08-26T18:22:00.187Z,55.28
2022-08-26T18:24:30.331Z,55.10
2022-08-26T18:26:58.665Z,55.16
2022-08-26T18:29:29.304Z,54.90
2022-08-26T18:31:56.585Z,55.10
2022-08-26T18:34:23.450Z,54.92
2022-08-26T18:36:58.653Z,55.67
2022-08-26T18:39:25.742Z,55.64
2022-08-26T18:41:53.271Z,55.57
2022-08-26T18:44:23.200Z,55.66
2022-08-26T18:46:51.127Z,55.89
2022-08-26T18:49:20.791Z,55.95
2022-08-26T18:51:48.064Z,56.50
2022-08-26T18:54:14.991Z,55.82
2022-08-26T18:56:42.466Z,55.61
2022-08-26T18:59:09.996Z,55.64
2022-08-26T19:01:40.880Z,56.20
2022-08-26T19:04:12.888Z,56.17
2022-08-26T19:06:46.166Z,56.33
2022-08-26T19:09:14.651Z,55.98
2022-08-26T19:11:45.269Z,55.90
2022-08-26T19:14:15.190Z,56.41
2022-08-26T19:16:45.642Z,55.95
2022-08-26T19:19:13.577Z,55.88
2022-08-26T19:21:40.927Z,56.30
2022-08-26T19:24:12.277Z,55.85
2022-08-26T19:26:39.212Z,55.68
2022-08-26T19:29:06.716Z,56.17
2022-08-26T19:31:33.640Z,56.20
2022-08-26T19:34:02.082Z,56.37
2022-08-26T19:36:29.428Z,56.39
2022-08-26T19:38:56.866Z,56.66
2022-08-26T19:41:37.074Z,56.76
2022-08-26T19:44:09.269Z,56.86
2022-08-26T19:49:05.306Z,57.06
2022-08-26T19:51:34.040Z,57.20
2022-08-26T19:54:02.191Z,57.09
2022-08-26T19:56:29.870Z,57.62
2022-08-26T19:58:56.927Z,57.74
2022-08-26T20:01:24.172Z,57.88
2022-08-26T20:03:51.214Z,58.01
2022-08-26T20:06:20.263Z,58.26
2022-08-26T20:08:47.799Z,58.45
2022-08-26T20:11:18.674Z,58.19
2022-08-26T20:13:46.915Z,58.77
2022-08-26T20:16:14.477Z,58.50
2022-08-26T20:19:00.781Z,58.19
2022-08-26T20:21:33.144Z,58.59
2022-08-26T20:24:04.337Z,58.93
2022-08-26T20:26:33.450Z,59.00
2022-08-26T20:29:00.503Z,59.62
2022-08-26T20:31:28.253Z,59.47
2022-08-26T20:33:55.700Z,59.85
2022-08-26T20:36:25.902Z,59.68
2022-08-26T20:38:55.537Z,59.61
2022-08-26T20:41:24.076Z,59.88
2022-08-26T20:43:51.132Z,59.69
2022-08-26T20:46:21.896Z,59.47
2022-08-26T20:48:51.934Z,60.44
2022-08-26T20:51:19.261Z,59.65
2022-08-26T20:53:46.719Z,59.46
2022-08-26T20:56:16.393Z,59.22
2022-08-26T20:58:43.349Z,59.37
2022-08-26T21:01:18.480Z,58.93
2022-08-26T21:03:45.767Z,59.20
2022-08-26T21:06:12.731Z,58.91
2022-08-26T21:08:42.608Z,59.30
2022-08-26T21:11:11.035Z,59.33
2022-08-26T21:14:01.561Z,59.24
2022-08-26T21:16:27.151Z,59.65
2022-08-26T21:18:54.284Z,59.79
2022-08-26T21:21:24.990Z,59.81
2022-08-26T21:23:52.198Z,59.38
2022-08-26T21:26:19.272Z,59.64
2022-08-26T21:28:48.766Z,59.66
2022-08-26T21:31:17.874Z,60.12
2022-08-26T21:33:44.805Z,60.23
2022-08-26T21:36:12.832Z,60.23
2022-08-26T21:38:39.722Z,60.07
2022-08-26T21:41:10.562Z,60.36
2022-08-26T21:43:37.754Z,60.29
2022-08-26T21:46:14.022Z,60.31
2022-08-26T21:48:43.719Z,60.63
2022-08-26T21:51:13.993Z,60.60
2022-08-26T21:53:41.234Z,60.56
2022-08-26T21:56:15.299Z,60.89
2022-08-26T21:58:42.548Z,60.96
2022-08-26T22:01:13.082Z,61.21
2022-08-26T22:03:46.789Z,61.56
2022-08-26T22:06:15.191Z,61.63
2022-08-26T22:08:42.134Z,61.88
2022-08-26T22:11:09.621Z,61.85
2022-08-26T22:13:39.157Z,61.98
2022-08-26T22:16:07.437Z,61.95
2022-08-26T22:18:36.381Z,61.70
2022-08-26T22:21:05.771Z,61.94
2022-08-26T22:23:33.089Z,61.76
2022-08-26T22:26:00.596Z,62.00
2022-08-26T22:28:28.282Z,62.11
2022-08-26T22:30:55.759Z,62.34
2022-08-26T22:33:23.490Z,62.22
2022-08-26T22:35:53.107Z,62.03
2022-08-26T22:38:21.081Z,62.35
2022-08-26T22:40:50.585Z,62.11
2022-08-26T22:43:18.912Z,61.77
2022-08-26T22:45:47.918Z,61.76
2022-08-26T22:48:17.837Z,61.74
2022-08-26T22:50:45.935Z,62.10
2022-08-26T22:53:15.086Z,62.37
2022-08-26T22:55:43.534Z,62.33
2022-08-26T22:58:11.820Z,62.82
2022-08-26T23:00:40.280Z,62.54
2022-08-26T23:03:08.135Z,62.78
2022-08-26T23:05:35.607Z,62.81
2022-08-26T23:08:03.049Z,62.64
2022-08-26T23:10:32.153Z,62.37
2022-08-26T23:12:59.264Z,62.57
2022-08-26T23:15:26.419Z,62.67
2022-08-26T23:17:58.477Z,62.56
2022-08-26T23:20:26.987Z,62.76
2022-08-26T23:22:54.064Z,62.77
2022-08-26T23:25:21.444Z,62.54
2022-08-26T23:27:50.264Z,62.59
2022-08-26T23:30:20.037Z,62.61
2022-08-26T23:32:46.952Z,62.58
2022-08-26T23:35:14.789Z,62.48
2022-08-26T23:37:44.364Z,62.39
2022-08-26T23:40:15.007Z,62.95
2022-08-26T23:42:41.944Z,62.85
2022-08-26T23:45:13.513Z,62.85
2022-08-26T23:47:41.245Z,63.11
2022-08-26T23:50:09.019Z,62.96
2022-08-26T23:52:54.455Z,62.89
2022-08-26T23:55:22.581Z,62.64
2022-08-26T23:57:49.605Z,62.95
